Terminal Aerodrome Forecast
Issued by NWS

Home | Current Version | Previous Version | Text Only | Print | Product List | Glossary On
Versions: 1 2 3 4 5 6 7 8 9 10 11 12 13 14 15 16 17 18 19 20 21 22 23 24 25 26 27 28 29 30 31 32
000
FTUS45 KGJT 252325
TAFMTJ
TAF
KMTJ 252325Z 2600/2624 31011KT P6SM SCT060 OVC100
     FM260300 16004KT P6SM VCSH OVC040
     FM260700 18004KT P6SM VCSH OVC035
     FM261000 VRB03KT P6SM VCSH BKN060
     FM261800 31006KT P6SM SCT100=

USA.gov is the U.S. government's official web portal to all federal, state and local government web resources and services.